Phillip Makin

Phillip Makin

Statistiques 2019

  • Courses courues : -
  • Nb de victoires : -
  • Nb de places : -
  • Écart gagnant : 2
  • Réussite à la gagne : -
  • Réussite à la place : -
Musique : (17) 4p 2p 1p 5p 1p 7p 1p 9p 7p 6p 2p 1p 6p 10p 4p 1p 6p 3p
DateRangCatégorieAlloc.Dist.HippodromeChevalPoidsSpé.
20/06/17 4 Galop 6 965€ Gb-Beverley Waiting A Lot 56,5 Plat
20/06/17 2 Galop 6 965€ Gb-Beverley Equidae 58 Plat
15/06/17 1 Galop 10 530€ Gb-Haydock Mythical Madness 62,5 Plat
22/05/17 5 Galop 6 094€ Gb-Carlisle African Blessing 59 Plat
22/05/17 1 Galop 6 094€ Gb-Carlisle Moonwise 56 Plat
16/05/17 7 Galop 4 395€ Gb-Beverley Ronnie The Rooster 60,5 Plat
24/04/17 1 Galop 3 760€ Gb-Pontefract Alfred Richardson 60 Plat
20/04/17 9 Galop 5 640€ Gb-Ripon Rantan 59,5 Plat
20/04/17 7 Galop 3 760€ Gb-Ripon Kirbec 57 Plat
18/04/17 6 Galop 5 265€ Gb-Newmarket Shobrom 58 Plat
15/04/17 2 Galop 75 220€ Gb-Musselburgh Maleficent Queen 61 Plat
14/04/17 1 Galop 14 653€ Gb-Newcastle Cheeseandpickle 57 Plat
10/04/17 6 Galop 5 804€ Gb-Redcar Livella Fella 62 Plat
08/04/17 10 Galop 3 384€ Gb-Wolverhampton Hypnotic Dancer 57 Plat
01/04/17 4 Galop 38 905€ Gb-Doncaster Swift Emperor 59 Plat
24/03/17 1 Galop 3 593€ Gb-Newcastle Melonade 55,5 Plat
16/02/17 6 Galop 13 662€ GB-CHELMSFORD Gold Flash 57 Plat
03/01/17 3 Galop 9 563€ Gb-Newcastle Cavalieri 63 Plat
05/11/16 8 Galop 68 312€ Gb-Doncaster Maleficent Queen 59,5 Plat
01/11/16 10 Galop 9 905€ Gb-Kempton Townsville 59 Plat
15/10/16 9 Galop 819 750€ Gb-Ascot Maleficent Queen 59,5 Plat
08/10/16 7 Galop 136 625€ Gb-York Hoofalong 60 Plat
07/10/16 10 Galop 223 381€ Gb-Newmarket So Beloved 58,5 Plat
07/10/16 2 Galop 109 300€ Gb-Newmarket Clem Fandango 56,5 Plat
05/10/16 8 Galop 14 265€ Gb-Kempton Chookie Royale 60,5 Plat
01/10/16 6 Galop 137 836€ Gb-Redcar Lawless Louis 56,5 Plat
29/09/16 11 Galop 8 197€ Gb-Newcastle Drago 61 Plat
24/09/16 1 Galop 27 325€ Gb-Newmarket Salateen 59,5 Plat
24/09/16 20 Galop 218 600€ Gb-Newmarket Lat Hawill 56,5 Plat
17/09/16 10 Galop 20 495€ Gb-Ayr Glengarry 55 Plat
17/09/16 17 Galop 273 250€ Gb-Ayr Ascription 61 Plat
17/09/16 24 Galop 68 312€ Gb-Ayr Mujassam 60 Plat
17/09/16 3 Galop 27 325€ Gb-Ayr Whatsthemessage 56,5 Plat
16/09/16 1 Galop 68 312€ Gb-Ayr Clem Fandango 56,5 Plat
16/09/16 2 Galop 13 662€ Gb-Ayr Trading Point 59,5 Plat
16/09/16 2 Galop 13 662€ Gb-Ayr Saint Equiano 59,5 Plat
13/09/16 7 Galop 6 829€ Gb-Carlisle Amood 60,5 Plat
10/09/16 3 Galop 40 987€ Gb-Doncaster Lustrous 63 Plat
10/09/16 8 Galop 956 375€ Gb-Doncaster The Tartan Spartan 57,5 Plat
10/09/16 17 Galop 81 975€ Gb-Doncaster Out Do 61 Plat
08/09/16 11 Galop 499 408€ Gb-Doncaster Bohemian Flame 58 Plat
03/09/16 7 Galop 68 312€ Gb-Kempton Lat Hawill 62 Plat
03/09/16 7 Galop 4 491€ Gb-Wolverhampton Gold Flash 60,5 Plat
27/08/16 10 Galop 10 930€ Gb-Beverley Space Artist 59 Plat
27/08/16 2 Galop 68 312€ Gb-Beverley Willytheconqueror 56,5 Plat
19/08/16 14 Galop 88 804€ Gb-York Sindarban 55,5 Plat
18/08/16 3 Galop 81 975€ Gb-York Pandora 60,5 Plat
18/08/16 18 Galop 116 129€ Gb-York Lat Hawill 57,5 Plat
18/08/16 6 Galop 273 250€ Gb-York Clem Fandango 57 Plat
18/08/16 14 Galop 409 875€ Gb-York Danielsflyer 56 Plat